Tiempo atmosférico en la estación meteorológica de Gaucín, Málaga (545 m.)



Fecha
DESCASC
Temp. máxima en grados centígrados (hora)
DESCASC
Temp. mínima en grados centígrados (hora)
DESCASC
Temp. media en grados centígrados
DESCASC
Racha de viento máxima en m/sg (hora)
DESCASC
Velocidad máxima media en intervalos de 10 minutos(hora)
DESCASC
Precipitaciones diarias en mm
DESCASC
Precipitaciones de 00:00 a 06:00 en mm
DESCASC
Precipitaciones de 06:00 a 12:00 en mm
DESCASC
Precipitaciones de 12:00 a 18:00 en mm
DESCASC
Precipitaciones de 18:00 a 24:00 en mm
DESCASC
30-10-2019 24.1 (14:00) 12.2 (00:00) 18.2 8.89 (14:10) 3.89 (23:10) 0 0 0 0 0
12-11-2019 15.8 (14:10) 9.4 (00:00) 12.6 12.78 (19:50) 5.28 (23:00) 0.2 0 0.2 0 0
10-11-2019 13.7 (12:50) 7.6 (00:00) 10.6 11.39 (15:40) 5.28 (05:40) 2.2 2.2 0 0 0
09-11-2019 16 (15:10) 4.5 (00:00) 10.3 10.83 (17:20) 6.39 (17:50) 0 0 0 0 0
08-11-2019 12.6 (16:10) 7.1 (00:00) 9.9 9.72 (02:20) 4.17 (18:40) 0 0 0 0 0
06-11-2019 16.1 (13:50) 6.8 (00:00) 11.5 9.72 (17:50) 3.89 (15:50) 0 0 0 0 0
05-11-2019 15.1 (17:00) 10.3 (00:00) 12.7 16.11 (04:30) 6.11 (04:30) 1.8 1.8 0 0 0
04-11-2019 17.6 (14:30) 13.8 (00:00) 15.7 12.5 (15:10) 4.17 (22:40) 0.2 0 0.2 0 0
03-11-2019 16.2 (13:20) 13.3 (00:00) 14.8 14.17 (08:20) 5.28 (08:10) 8 7.2 0.8 0 0
15-11-2019 9.8 (13:50) 4.4 (00:00) 7.1 12.5 (01:40) 4.72 (06:20) 0 0 0 0 0
01-11-2019 22.1 (11:50) 15.6 (00:00) 18.9 9.17 (13:40) 4.72 (00:30) 0 0 0 0 0
31-10-2019 22.2 (16:30) 14.3 (05:00) 18.3 10 (23:59) 4.17 (23:30) 0 0 0 0 0
29-10-2019 22.9 (15:00) 12.2 (00:00) 17.5 7.78 (13:50) 4.44 (00:20) 0 0 0 0 0
28-10-2019 21.6 (14:40) 12 (00:00) 16.8 8.33 (14:30) 4.44 (14:30) 0 0 0 0 0
27-10-2019 21.3 (16:40) 12.2 (00:00) 16.7 6.11 (13:30) 4.17 (14:40) 0 0 0 0 0
26-10-2019 23.4 (16:10) 12.2 (00:00) 17.8 5.28 (16:30) 3.06 (13:40) 0 0 0 0 0
25-10-2019 22.4 (15:00) 11.3 (00:00) 16.8 6.67 (13:40) 4.17 (16:00) 0 0 0 0 0
24-10-2019 19.4 (16:50) 8.9 (00:00) 14.1 9.72 (00:40) 3.33 (00:50) 0 0 0 0 0
23-10-2019 15.6 (16:40) 9.4 (00:00) 12.5 13.33 (15:50) 5.56 (15:50) 4.4 3.2 0 0 1.2
16-11-2019 11.8 (14:10) 1.4 (00:00) 6.6 10 (17:30) 3.89 (19:00) 0 0 0 0 0
21-10-2019 18.5 (16:40) 6.5 (00:00) 12.5 7.22 (16:30) 3.89 (17:50) 0 0 0 0 0
20-10-2019 17.2 (15:40) 10.1 (00:00) 13.7 13.61 (04:00) 5.56 (02:20) 0.8 0.6 0.2 0 0
18-10-2019 24.7 (15:10) 12.3 (00:00) 18.5 7.78 (17:10) 4.72 (00:20) 0 0 0 0 0
13-11-2019 14.7 (17:10) 9.6 (00:00) 12.2 12.5 (01:50) 5.28 (02:10) 0.4 0 0.2 0.2 0
19-10-2019 20.6 (13:10) 13.3 (00:00) 17 11.94 (12:30) 5.83 (23:59) 4 0 0 0.6 3.4
11-11-2019 12.6 (19:50) 8.4 (04:40) 10.5 10 (01:50) 5 (13:40) 2 0 0 1.6 0.4
02-11-2019 18.1 (15:10) 14.6 (00:00) 16.4 15 (21:20) 5.28 (13:40) 13.4 1 9.2 3.2 0
22-10-2019 16.6 (13:20) 7.8 (00:00) 12.2 8.89 (14:00) 5 (15:20) 4 0 0 4 0
14-11-2019 12.1 (03:10) 6.9 (00:00) 9.5 15.28 (14:30) 5 (16:40) 5.4 0 0 5.4 0
07-11-2019 14.3 (15:40) 8.5 (00:00) 11.4 11.11 (14:00) 5 (13:40) 6.6 0 0 6.6 0

Gráficas

Temp. máximas Temp. mínimas Temp. medias Precipitaciones Rachas de viento máximas Velocidades máximas media en intervalos de 10 minutos

Datos horarios

Fecha y hora oficial Temperatura (ºC) Velocidad del viento (km/h) Dirección del viento Racha (km/h) Dirección de racha Precipitación (mm) Presión (hPa) Tendencia (hPa) Humedad (%)
2019-11-16 23:00:00 6.1 4 Nordeste 19 Oeste 0 -- -- 74
2019-11-16 22:00:00 6.2 7 Nordeste 19 Norte 0 -- -- 70
2019-11-16 21:00:00 6.5 5 Nordeste 10 Este 0 -- -- 62
2019-11-16 20:00:00 6.7 5 Este 26 Norte 0 -- -- 60
2019-11-16 19:00:00 7.6 14 Norte 32 Norte 0 -- -- 56
2019-11-16 18:00:00 8.4 9 Norte 36 Noroeste 0 -- -- 56
2019-11-16 17:00:00 9.8 11 Norte 28 Noroeste 0 -- -- 50
2019-11-16 16:00:00 11 9 Norte 26 Noroeste 0 -- -- 52
2019-11-16 15:00:00 11.6 7 Noroeste 18 Noroeste 0 -- -- 51
2019-11-16 14:00:00 11.7 6 Oeste 18 Sudoeste 0 -- -- 51
2019-11-16 13:00:00 10.9 6 Norte 20 Norte 0 -- -- 48
2019-11-16 12:00:00 9.7 6 Norte 17 Norte 0 -- -- 50
2019-11-16 11:00:00 7.2 5 Nordeste 11 Nordeste 0 -- -- 62
2019-11-16 10:00:00 3.7 5 Nordeste 11 Norte 0 -- -- 76
2019-11-16 09:00:00 1.9 5 Nordeste 10 Nordeste 0 -- -- 83
2019-11-16 08:00:00 1.5 5 Nordeste 12 Nordeste 0 -- -- 85
2019-11-16 07:00:00 1.9 6 Nordeste 11 Nordeste 0 -- -- 84
2019-11-16 06:00:00 1.6 7 Nordeste 12 Nordeste 0 -- -- 85
2019-11-16 05:00:00 1.8 8 Nordeste 13 Norte 0 -- -- 83
2019-11-16 04:00:00 2.8 7 Norte 13 Norte 0 -- -- 78
2019-11-16 03:00:00 3.3 6 Norte 12 Nordeste 0 -- -- 77
2019-11-16 02:00:00 4.1 8 Nordeste 15 Norte 0 -- -- 74
2019-11-16 01:00:00 5.1 7 Nordeste 29 Norte 0 -- -- 70
2019-11-16 00:00:00 5.3 5 Nordeste 21 Norte 0 -- -- 71
2019-11-15 23:00:00 6.1 6 Norte 27 Norte 0 -- -- 67
2019-11-15 22:00:00 6.3 6 Norte 20 Norte 0 -- -- 67
2019-11-15 21:00:00 6.3 3 Nordeste 20 Norte 0 -- -- 70
2019-11-15 20:00:00 6.6 4 Norte 17 Oeste 0 -- -- 70
2019-11-15 19:00:00 7.3 4 Nordeste 28 Noroeste 0 -- -- 63
2019-11-15 18:00:00 7.9 7 Noroeste 26 Noroeste 0 -- -- 60
2019-11-15 17:00:00 8.7 8 Noroeste 30 Noroeste 0 -- -- 59
2019-11-15 16:00:00 9.6 7 Oeste 37 Norte 0 -- -- 54
2019-11-15 15:00:00 8.3 12 Norte 31 Oeste 0 -- -- 55
2019-11-15 14:00:00 9.7 12 Oeste 27 Oeste 0 -- -- 54
2019-11-15 13:00:00 9.1 8 Sudoeste 24 Norte 0 -- -- 61
2019-11-15 12:00:00 8.1 6 Norte 34 Nordeste 0 -- -- 66
2019-11-15 11:00:00 6.7 7 Oeste 32 Norte 0 -- -- 76
2019-11-15 10:00:00 5.2 13 Norte 32 Nordeste 0 -- -- 83
2019-11-15 09:00:00 4.6 8 Norte 30 Norte 0 -- -- 86
2019-11-15 08:00:00 4.6 10 Noroeste 34 Noroeste 0 -- -- 85
2019-11-15 07:00:00 4.9 8 Noroeste 44 Norte 0 -- -- 84
2019-11-15 06:00:00 5.2 8 Norte 26 Oeste 0 -- -- 85
2019-11-15 05:00:00 5.8 7 Norte 43 Nordeste 0 -- -- 83
2019-11-15 04:00:00 6.2 12 Noroeste 44 Norte 0 -- -- 80
2019-11-15 03:00:00 6.5 14 Norte 42 Norte 0 -- -- 84
2019-11-15 02:00:00 6.9 11 Noroeste 45 Norte 0 -- -- 87
2019-11-15 01:00:00 7.1 8 Noroeste 35 Noroeste 0 -- -- 85
2019-11-15 00:00:00 7.3 10 Noroeste 33 Norte 0 -- -- 86
2019-11-14 23:00:00 7.1 9 Norte 37 Norte 0 -- -- 86
2019-11-14 22:00:00 7 13 Norte 33 Norte 0 -- -- 83
2019-11-14 21:00:00 7.3 13 Norte 37 Nordeste 0 -- -- 82
2019-11-14 20:00:00 7.9 9 Noroeste 34 Norte 0 -- -- 76
2019-11-14 19:00:00 8 10 Norte 40 Noroeste 0 -- -- 83
2019-11-14 18:00:00 8.2 13 Norte 49 Noroeste 0 -- -- 83
2019-11-14 17:00:00 8.3 13 Nordeste 50 Nordeste 0 -- -- 84
2019-11-14 16:00:00 8.5 10 Nordeste 42 Norte 0.6 -- -- 92
2019-11-14 15:00:00 8.9 15 Norte 55 Norte 2 -- -- 90
2019-11-14 14:00:00 9.8 11 Noroeste 41 Noroeste 0.4 -- -- 92
2019-11-14 13:00:00 9.8 8 Noroeste 37 Noroeste 2.4 -- -- 91
2019-11-14 12:00:00 10.2 8 Oeste 43 Norte 0 -- -- 87
2019-11-14 11:00:00 10.7 11 Oeste 38 Sudoeste 0 -- -- 78
2019-11-14 10:00:00 9.6 9 Noroeste 31 Noroeste 0 -- -- 85
2019-11-14 09:00:00 9 6 Norte 23 Norte 0 -- -- 84
2019-11-14 08:00:00 8.5 8 Norte 33 Norte 0 -- -- 86
2019-11-14 07:00:00 8.6 9 Noroeste 32 Norte 0 -- -- 86
2019-11-14 06:00:00 9.5 12 Norte 33 Norte 0 -- -- 84
2019-11-14 05:00:00 11.2 12 Oeste 28 Norte 0 -- -- 86
2019-11-14 04:00:00 11.9 10 Noroeste 33 Nordeste 0 -- -- 83
2019-11-14 03:00:00 12 12 Noroeste 28 Norte 0 -- -- 83
2019-11-14 02:00:00 11.8 5 Norte 18 Norte 0 -- -- 88
2019-11-14 01:00:00 11.3 4 Este 17 Norte 0 -- -- 92
2019-11-14 00:00:00 11.6 4 Sudoeste 21 Oeste 0 -- -- 91
2019-11-13 23:00:00 11.8 6 Sudoeste 15 Sudoeste 0 -- -- 91
2019-11-13 22:00:00 11.8 4 Sudoeste 17 Oeste 0 -- -- 89
2019-11-13 21:00:00 11.9 3 Norte 17 Oeste 0 -- -- 90
2019-11-13 20:00:00 12.4 6 Norte 31 Norte 0 -- -- 86
2019-11-13 19:00:00 13.1 8 Noroeste 26 Noroeste 0 -- -- 82
2019-11-13 18:00:00 13.8 11 Noroeste 25 Noroeste 0.2 -- -- 80
2019-11-13 17:00:00 14.5 9 Noroeste 30 Norte 0 -- -- 81
2019-11-13 16:00:00 14.5 9 Oeste 29 Norte 0 -- -- 84
2019-11-13 15:00:00 13.2 8 Noroeste 27 Sudoeste 0 -- -- 91
2019-11-13 14:00:00 12.9 8 Sudoeste 35 Norte 0 -- -- 89
2019-11-13 13:00:00 12.7 9 Oeste 25 Norte 0 -- -- 91
2019-11-13 12:00:00 12.2 7 Oeste 30 Norte 0 -- -- 90
2019-11-13 11:00:00 12.1 15 Noroeste 30 Noroeste 0 -- -- 88
2019-11-13 10:00:00 12.1 9 Noroeste 30 Noroeste 0 -- -- 86
2019-11-13 09:00:00 11.8 9 Noroeste 26 Norte 0 -- -- 87
2019-11-13 08:00:00 11.2 7 Noroeste 30 Noroeste 0.2 -- -- 89
2019-11-13 07:00:00 11.2 11 Noroeste 36 Noroeste 0 -- -- 87
2019-11-13 06:00:00 10.7 13 Noroeste 36 Norte 0 -- -- 91
2019-11-13 05:00:00 9.8 10 Norte 35 Noroeste 0 -- -- 94
2019-11-13 04:00:00 10.1 14 Norte 34 Norte 0 -- -- 88
2019-11-13 03:00:00 10.6 13 Norte 44 Nordeste 0 -- -- 81
2019-11-13 02:00:00 11.3 17 Norte 45 Noroeste 0 -- -- 74
2019-11-13 01:00:00 11.3 14 Norte 38 Norte 0 -- -- 65
2019-11-13 00:00:00 11.4 13 Norte 40 Norte 0 -- -- 64
2019-11-12 23:00:00 10.6 19 Norte 45 Norte 0 -- -- 71
2019-11-12 22:00:00 10.7 12 Norte 32 Norte 0 -- -- 72
2019-11-12 21:00:00 10.9 13 Norte 35 Noroeste 0 -- -- 71
2019-11-12 20:00:00 11.6 10 Noroeste 46 Oeste 0 -- -- 67
2019-11-12 19:00:00 12.2 8 Sur 36 Nordeste 0 -- -- 65
2019-11-12 18:00:00 13 10 Norte 37 Noroeste 0 -- -- 61
2019-11-12 17:00:00 14.1 12 Norte 33 Norte 0 -- -- 56
2019-11-12 16:00:00 15 6 Oeste 27 Norte 0 -- -- 60
2019-11-12 15:00:00 15.2 11 Noroeste 22 Noroeste 0 -- -- 64
2019-11-12 14:00:00 15.5 6 Noroeste 26 Noroeste 0 -- -- 64
2019-11-12 13:00:00 14.2 9 Norte 41 Norte 0 -- -- 70
2019-11-12 12:00:00 13.9 12 Norte 29 Norte 0 -- -- 71
2019-11-12 11:00:00 12.7 6 Nordeste 18 Norte 0 -- -- 87
2019-11-12 10:00:00 10.6 8 Norte 19 Nordeste 0 -- -- 96
2019-11-12 09:00:00 9.6 4 Nordeste 10 Norte 0 -- -- 96
2019-11-12 08:00:00 9.6 5 Nordeste 9 Norte 0.2 -- -- 95
2019-11-12 07:00:00 10.2 5 Norte 9 Norte 0 -- -- 95
2019-11-12 06:00:00 10.6 4 Norte 9 Norte 0 -- -- 94
2019-11-12 05:00:00 10.9 4 Nordeste 15 Norte 0 -- -- 94
2019-11-12 04:00:00 11.3 5 Nordeste 19 Norte 0 -- -- 94
2019-11-12 03:00:00 11.4 4 Nordeste 22 Norte 0 -- -- 94
2019-11-12 02:00:00 11.9 7 Norte 17 Norte 0 -- -- 94
2019-11-12 01:00:00 12.3 7 Norte 16 Norte 0 -- -- 92
2019-11-12 00:00:00 12.1 5 Norte 13 Noroeste 0 -- -- 93
2019-11-11 23:00:00 12 7 Nordeste 14 Norte 0 -- -- 94
2019-11-11 22:00:00 12.3 4 Nordeste 13 Norte 0 -- -- 92
2019-11-11 21:00:00 12.4 5 Norte 21 Nordeste 0.2 -- -- 92
2019-11-11 20:00:00 12.6 3 Noroeste 22 Oeste 0 -- -- 93
2019-11-11 19:00:00 12.2 4 Oeste 11 Noroeste 0.2 -- -- 95
2019-11-11 18:00:00 11.7 0 Calma 7 Este 1.2 -- -- 95
2019-11-11 17:00:00 11.6 3 Oeste 13 Nordeste 0.2 -- -- 94
2019-11-11 16:00:00 11.2 3 Noroeste 19 Nordeste 0.2 -- -- 93
2019-11-11 15:00:00 11.6 9 Noroeste 33 Norte 0 -- -- 88
2019-11-11 14:00:00 12 14 Noroeste 35 Norte 0 -- -- 83
2019-11-11 13:00:00 12.2 12 Noroeste 31 Noroeste 0 -- -- 80
2019-11-11 12:00:00 12 9 Noroeste 29 Noroeste 0 -- -- 80
2019-11-11 11:00:00 10.7 8 Noroeste 22 Oeste 0 -- -- 82
2019-11-11 10:00:00 9.8 6 Norte 22 Norte 0 -- -- 86
2019-11-11 09:00:00 9 8 Norte 25 Nordeste 0 -- -- 90
2019-11-11 08:00:00 8.6 7 Norte 24 Norte 0 -- -- 92
2019-11-11 07:00:00 8.5 8 Norte 26 Norte 0 -- -- 92
2019-11-11 06:00:00 8.5 6 Norte 25 Noroeste 0 -- -- 92
2019-11-11 05:00:00 8.4 7 Norte 21 Nordeste 0 -- -- 91
2019-11-11 04:00:00 8.5 6 Norte 26 Norte 0 -- -- 89
2019-11-11 03:00:00 8.8 9 Noroeste 32 Norte 0 -- -- 87
2019-11-11 02:00:00 9 9 Sudoeste 36 Noroeste 0 -- -- 82
2019-11-11 01:00:00 9.2 8 Oeste 34 Noroeste 0 -- -- 79
2019-11-11 00:00:00 9.5 10 Norte 29 Noroeste 0 -- -- 76
2019-11-10 23:00:00 9.7 9 Noroeste 26 Noroeste 0 -- -- 72
2019-11-10 22:00:00 9.8 8 Oeste 32 Nordeste 0 -- -- 66
2019-11-10 21:00:00 9.9 6 Nordeste 30 Noroeste 0 -- -- 62
2019-11-10 20:00:00 10.5 8 Norte 33 Norte 0 -- -- 59
2019-11-10 19:00:00 10.7 9 Nordeste 41 Norte 0 -- -- 56
2019-11-10 18:00:00 11.4 9 Noroeste 39 Nordeste 0 -- -- 52
2019-11-10 17:00:00 12.2 10 Oeste 36 Nordeste 0 -- -- 50
2019-11-10 16:00:00 11.9 10 Norte 41 Noroeste 0 -- -- 55
2019-11-10 15:00:00 12.8 11 Noroeste 33 Noroeste 0 -- -- 55
2019-11-10 14:00:00 12.3 14 Norte 41 Norte 0 -- -- 59
2019-11-10 13:00:00 13.4 7 Norte 27 Noroeste 0 -- -- 52
2019-11-10 12:00:00 12.2 9 Norte 31 Norte 0 -- -- 54
2019-11-10 11:00:00 10.8 9 Norte 26 Norte 0 -- -- 72
2019-11-10 10:00:00 9.3 10 Nordeste 36 Norte 0 -- -- 78
2019-11-10 09:00:00 8.1 12 Norte 41 Norte 0 -- -- 84
2019-11-10 08:00:00 7.6 6 Nordeste 23 Norte 0 -- -- 86
2019-11-10 07:00:00 8.1 12 Norte 33 Norte 0 -- -- 88
2019-11-10 06:00:00 8.6 15 Norte 37 Norte 0 -- -- 88
2019-11-10 05:00:00 9.5 8 Noroeste 30 Norte 0 -- -- 87
2019-11-10 04:00:00 11 9 Noroeste 30 Noroeste 0 -- -- 87
2019-11-10 03:00:00 11.2 9 Noroeste 25 Noroeste 1.6 -- -- 95
2019-11-10 02:00:00 10.6 5 Noroeste 15 Oeste 0.6 -- -- 94
2019-11-10 01:00:00 9.7 4 Noroeste 22 Oeste 0 -- -- 93
2019-11-10 00:00:00 10 13 Noroeste 37 Noroeste 0 -- -- 87
2019-11-09 23:00:00 9.7 8 Norte 34 Nordeste 0 -- -- 83
2019-11-09 22:00:00 9.9 8 Norte 36 Norte 0 -- -- 66
2019-11-09 21:00:00 10.5 17 Norte 38 Norte 0 -- -- 60
2019-11-09 20:00:00 10.3 7 Nordeste 29 Norte 0 -- -- 58
2019-11-09 19:00:00 11 17 Norte 35 Norte 0 -- -- 52
2019-11-09 18:00:00 11.5 18 Norte 39 Norte 0 -- -- 52
2019-11-09 17:00:00 13.2 16 Norte 34 Norte 0 -- -- 49
2019-11-09 16:00:00 14.7 9 Norte 26 Norte 0 -- -- 49
2019-11-09 15:00:00 15.8 5 Nordeste 21 Norte 0 -- -- 46
2019-11-09 14:00:00 15.8 8 Norte 20 Norte 0 -- -- 40
2019-11-09 13:00:00 15 6 Norte 18 Sudeste 0 -- -- 40
2019-11-09 12:00:00 13.8 5 Norte 16 Norte 0 -- -- 43
2019-11-09 11:00:00 11.6 6 Nordeste 15 Norte 0 -- -- 52
2019-11-09 10:00:00 8.3 7 Nordeste 13 Norte 0 -- -- 63
2019-11-09 09:00:00 4.8 6 Nordeste 14 Norte 0 -- -- 75
2019-11-09 08:00:00 5.4 6 Norte 12 Nordeste 0 -- -- 71
2019-11-09 07:00:00 6 6 Nordeste 9 Nordeste 0 -- -- 67
2019-11-09 06:00:00 6.9 3 Nordeste 14 Norte 0 -- -- 63
2019-11-09 05:00:00 6.3 6 Nordeste 14 Nordeste 0 -- -- 67
2019-11-09 04:00:00 6.9 7 Nordeste 19 Nordeste 0 -- -- 65
2019-11-09 03:00:00 7 6 Nordeste 19 Norte 0 -- -- 65
2019-11-09 02:00:00 8.2 7 Norte 19 Norte 0 -- -- 59
2019-11-09 01:00:00 8.2 10 Nordeste 25 Norte 0 -- -- 59
2019-11-09 00:00:00 8.5 7 Nordeste 20 Este 0 -- -- 58
2019-11-08 23:00:00 7.7 6 Nordeste 12 Nordeste 0 -- -- 61
2019-11-08 22:00:00 8.5 3 Nordeste 13 Este 0 -- -- 58
2019-11-08 21:00:00 8.3 3 Nordeste 14 Nordeste 0 -- -- 62
2019-11-08 20:00:00 8.5 9 Nordeste 35 Norte 0 -- -- 63
2019-11-08 19:00:00 10.1 13 Norte 27 Norte 0 -- -- 56
2019-11-08 18:00:00 11.1 5 Norte 21 Oeste 0 -- -- 57
2019-11-08 17:00:00 12.3 7 Noroeste 27 Norte 0 -- -- 54
2019-11-08 16:00:00 12.5 9 Noroeste 30 Norte 0 -- -- 56
2019-11-08 15:00:00 12.4 8 Noroeste 30 Noroeste 0 -- -- 55
2019-11-08 14:00:00 12 10 Noroeste 29 Noroeste 0 -- -- 58
2019-11-08 13:00:00 11.4 6 Norte 26 Noroeste 0 -- -- 63
2019-11-08 12:00:00 10.7 10 Norte 32 Norte 0 -- -- 69
2019-11-08 11:00:00 9.4 11 Noroeste 33 Norte 0 -- -- 73
2019-11-08 10:00:00 8.4 9 Oeste 31 Noroeste 0 -- -- 81
2019-11-08 09:00:00 7.3 8 Nordeste 22 Norte 0 -- -- 88
2019-11-08 08:00:00 7.3 5 Noroeste 22 Noroeste 0 -- -- 86
2019-11-08 07:00:00 7.3 6 Norte 29 Norte 0 -- -- 86
2019-11-08 06:00:00 7.2 8 Norte 28 Norte 0 -- -- 85
2019-11-08 05:00:00 7.4 5 Noroeste 21 Norte 0 -- -- 82
2019-11-08 04:00:00 7.8 7 Este 30 Nordeste 0 -- -- 77
2019-11-08 03:00:00 8.6 13 Norte 35 Norte 0 -- -- 70
2019-11-08 02:00:00 9 10 Norte 31 Norte 0 -- -- 68
2019-11-08 01:00:00 9.4 12 Norte 30 Norte 0 -- -- 67
2019-11-08 00:00:00 8.8 9 Norte 24 Norte 0 -- -- 69
2019-11-07 23:00:00 8.5 8 Nordeste 28 Norte 0 -- -- 75
2019-11-07 22:00:00 10.6 14 Norte 32 Norte 0 -- -- 66
2019-11-07 21:00:00 11.1 10 Norte 26 Norte 0 -- -- 66
2019-11-07 20:00:00 11.1 11 Norte 27 Norte 0 -- -- 73
2019-11-07 19:00:00 11.8 8 Norte 26 Norte 0 -- -- 77
2019-11-07 18:00:00 12.9 8 Norte 25 Norte 0 -- -- 78
2019-11-07 17:00:00 13.5 9 Norte 25 Noroeste 0 -- -- 81
2019-11-07 16:00:00 14.1 7 Norte 30 Norte 0 -- -- 85
2019-11-07 15:00:00 13.4 12 Norte 33 Sur 3.4 -- -- 94
2019-11-07 14:00:00 13.1 11 Sudoeste 40 Sudoeste 3 -- -- 94
2019-11-07 13:00:00 13 11 Sudoeste 36 Sudoeste 0.2 -- -- 93
2019-11-07 12:00:00 13.3 13 Sudoeste 26 Sudoeste 0 -- -- 92
2019-11-07 11:00:00 12.4 2 Oeste 15 Norte 0 -- -- 92
2019-11-07 10:00:00 11.6 4 Norte 13 Nordeste 0 -- -- 90
2019-11-07 09:00:00 11.2 6 Noroeste 15 Nordeste 0 -- -- 85
2019-11-07 08:00:00 10.8 3 Oeste 15 Norte 0 -- -- 83
2019-11-07 07:00:00 10.9 7 Norte 22 Norte 0 -- -- 83
2019-11-07 06:00:00 11 13 Norte 24 Nordeste 0 -- -- 81
2019-11-07 05:00:00 11.1 11 Norte 24 Norte 0 -- -- 81
2019-11-07 04:00:00 11.3 9 Norte 23 Norte 0 -- -- 80
2019-11-07 03:00:00 11.2 9 Nordeste 25 Norte 0 -- -- 80
2019-11-07 02:00:00 11.2 10 Norte 25 Norte 0 -- -- 79
2019-11-07 01:00:00 11.1 5 Nordeste 26 Norte 0 -- -- 82
2019-11-07 00:00:00 11.2 9 Norte 24 Noroeste 0 -- -- 84
2019-11-06 23:00:00 11.2 8 Noroeste 26 Noroeste 0 -- -- 86
2019-11-06 22:00:00 11.2 8 Norte 24 Noroeste 0 -- -- 85
2019-11-06 21:00:00 11.2 9 Norte 28 Nordeste 0 -- -- 81
2019-11-06 20:00:00 11.8 9 Norte 27 Noroeste 0 -- -- 71
2019-11-06 19:00:00 12.3 5 Norte 24 Norte 0 -- -- 64
2019-11-06 18:00:00 13 8 Nordeste 35 Norte 0 -- -- 62
2019-11-06 17:00:00 14.2 10 Noroeste 35 Norte 0 -- -- 57
2019-11-06 16:00:00 14.6 11 Norte 34 Norte 0 -- -- 57
2019-11-06 15:00:00 15.3 10 Noroeste 24 Noroeste 0 -- -- 53
2019-11-06 14:00:00 16.1 6 Norte 21 Norte 0 -- -- 55
2019-11-06 13:00:00 15.5 5 Norte 20 Norte 0 -- -- 58
2019-11-06 12:00:00 14.4 7 Noroeste 18 Norte 0 -- -- 61
2019-11-06 11:00:00 12.9 4 Nordeste 12 Norte 0 -- -- 70
2019-11-06 10:00:00 9.7 4 Nordeste 11 Norte 0 -- -- 87
2019-11-06 09:00:00 7.3 4 Nordeste 9 Norte 0 -- -- 95
2019-11-06 08:00:00 6.9 4 Nordeste 11 Nordeste 0 -- -- 95
2019-11-06 07:00:00 7.2 6 Nordeste 14 Nordeste 0 -- -- 94
2019-11-06 06:00:00 7.6 7 Nordeste 18 Norte 0 -- -- 91
2019-11-06 05:00:00 9 6 Nordeste 21 Nordeste 0 -- -- 87
2019-11-06 04:00:00 9.3 6 Nordeste 16 Norte 0 -- -- 87
2019-11-06 03:00:00 10 6 Norte 21 Norte 0 -- -- 85
2019-11-06 02:00:00 10.9 8 Norte 24 Nordeste 0 -- -- 81
2019-11-06 01:00:00 11.1 6 Norte 21 Oeste 0 -- -- 83
2019-11-06 00:00:00 11.5 7 Norte 23 Noroeste 0 -- -- 84
2019-11-05 23:00:00 12.3 7 Noroeste 26 Oeste 0 -- -- 82
2019-11-05 22:00:00 12.7 6 Oeste 32 Oeste 0 -- -- 82
2019-11-05 21:00:00 12.6 13 Oeste 28 Sudoeste 0 -- -- 81
2019-11-05 20:00:00 12.4 7 Oeste 22 Norte 0 -- -- 82
2019-11-05 19:00:00 12.7 8 Noroeste 28 Noroeste 0 -- -- 78
2019-11-05 18:00:00 13.5 9 Oeste 28 Norte 0 -- -- 74
2019-11-05 17:00:00 15.1 7 Sudoeste 31 Norte 0 -- -- 66
2019-11-05 16:00:00 14.7 11 Norte 28 Noroeste 0 -- -- 63
2019-11-05 15:00:00 14.4 12 Norte 35 Nordeste 0 -- -- 65
2019-11-05 14:00:00 14.4 12 Noroeste 34 Noroeste 0 -- -- 65
2019-11-05 13:00:00 13.2 12 Norte 35 Norte 0 -- -- 68
2019-11-05 12:00:00 13 14 Norte 45 Noroeste 0 -- -- 67
2019-11-05 11:00:00 12.3 13 Norte 37 Nordeste 0 -- -- 71
2019-11-05 10:00:00 11.1 17 Norte 41 Noroeste 0 -- -- 76
2019-11-05 09:00:00 10.7 13 Norte 45 Norte 0 -- -- 72
2019-11-05 08:00:00 10.6 17 Norte 41 Norte 0 -- -- 69
2019-11-05 07:00:00 10.7 14 Norte 42 Norte 0 -- -- 77
2019-11-05 06:00:00 10.7 16 Norte 41 Norte 0 -- -- 82
2019-11-05 05:00:00 10.4 13 Norte 58 Nordeste 0 -- -- 91
2019-11-05 04:00:00 11.5 16 Norte 45 Noroeste 0.4 -- -- 89
2019-11-05 03:00:00 13.5 10 Noroeste 42 Sur 1.2 -- -- 91
2019-11-05 02:00:00 13.8 6 Sudoeste 39 Sudoeste 0 -- -- 87
2019-11-05 01:00:00 13.8 8 Sudoeste 31 Noroeste 0.2 -- -- 87
2019-11-05 00:00:00 14.2 12 Noroeste 37 Noroeste 0 -- -- 83
2019-11-04 23:00:00 14.1 13 Noroeste 33 Noroeste 0 -- -- 76
2019-11-04 22:00:00 14.3 13 Oeste 33 Noroeste 0 -- -- 82
2019-11-04 21:00:00 14.4 11 Oeste 32 Noroeste 0 -- -- 82
2019-11-04 20:00:00 14.2 10 Noroeste 29 Noroeste 0 -- -- 85
2019-11-04 19:00:00 14.7 12 Noroeste 32 Oeste 0 -- -- 82
2019-11-04 18:00:00 14.8 10 Noroeste 30 Noroeste 0 -- -- 78
2019-11-04 17:00:00 15.3 10 Oeste 33 Noroeste 0 -- -- 78
2019-11-04 16:00:00 16.5 13 Noroeste 45 Nordeste 0 -- -- 71
2019-11-04 15:00:00 17.3 13 Norte 39 Norte 0 -- -- 72
2019-11-04 14:00:00 17.1 14 Norte 41 Noroeste 0 -- -- 71
2019-11-04 13:00:00 16.9 11 Norte 38 Norte 0 -- -- 77
2019-11-04 12:00:00 15.6 10 Norte 29 Norte 0 -- -- 82
2019-11-04 11:00:00 14.8 10 Norte 30 Oeste 0 -- -- 87
2019-11-04 10:00:00 14.4 8 Noroeste 26 Noroeste 0 -- -- 87
2019-11-04 09:00:00 14 11 Noroeste 30 Oeste 0 -- -- 87
2019-11-04 08:00:00 13.9 7 Oeste 27 Oeste 0 -- -- 89
2019-11-04 07:00:00 14 8 Oeste 24 Oeste 0.2 -- -- 87
2019-11-04 06:00:00 14 5 Norte 30 Sudoeste 0 -- -- 89
2019-11-04 05:00:00 13.9 7 Noroeste 24 Noroeste 0 -- -- 91
2019-11-04 04:00:00 14.1 8 Oeste 23 Noroeste 0 -- -- 89
2019-11-04 03:00:00 14.4 5 Oeste 17 Oeste 0 -- -- 90
2019-11-04 02:00:00 14.5 4 Noroeste 22 Nordeste 0 -- -- 89
2019-11-04 01:00:00 14.7 6 Norte 16 Nordeste 0 -- -- 90
2019-11-04 00:00:00 14.9 4 Norte 15 Norte 0 -- -- 91
2019-11-03 23:00:00 15 6 Oeste 18 Nordeste 0 -- -- 89
2019-11-03 22:00:00 15.2 5 Noroeste 29 Noroeste 0 -- -- 88
2019-11-03 21:00:00 15.3 6 Oeste 34 Noroeste 0 -- -- 87
2019-11-03 20:00:00 15.3 11 Oeste 30 Noroeste 0 -- -- 85
2019-11-03 19:00:00 15.5 11 Oeste 40 Sudoeste 0 -- -- 85
2019-11-03 18:00:00 15.8 19 Oeste 40 Sudoeste 0 -- -- 83
2019-11-03 17:00:00 15.8 11 Oeste 29 Sudoeste 0 -- -- 82
2019-11-03 16:00:00 15.8 13 Oeste 36 Oeste 0 -- -- 81
2019-11-03 15:00:00 15.7 12 Noroeste 34 Sudoeste 0 -- -- 81
2019-11-03 14:00:00 15.9 10 Oeste 34 Norte 0 -- -- 81
2019-11-03 13:00:00 16.1 10 Noroeste 38 Noroeste 0 -- -- 79
2019-11-03 12:00:00 15.6 12 Oeste 35 Norte 0 -- -- 80
2019-11-03 11:00:00 15.2 8 Noroeste 31 Noroeste 0 -- -- 85
2019-11-03 10:00:00 14 8 Norte 33 Norte 0 -- -- 89
2019-11-03 09:00:00 13.6 9 Noroeste 51 Norte 0.2 -- -- 90
2019-11-03 08:00:00 13.4 18 Norte 40 Noroeste 0 -- -- 88
2019-11-03 07:00:00 14.8 10 Noroeste 27 Oeste 0.6 -- -- 92
2019-11-03 06:00:00 15 7 Sudoeste 29 Norte 1.8 -- -- 93
2019-11-03 05:00:00 14.8 12 Noroeste 28 Oeste 3.2 -- -- 94
2019-11-03 04:00:00 14.9 5 Oeste 28 Norte 0.8 -- -- 93
2019-11-03 03:00:00 14.9 7 Oeste 24 Noroeste 1 -- -- 93
2019-11-03 02:00:00 15 10 Noroeste 28 Noroeste 0.4 -- -- 91
2019-11-03 01:00:00 14.7 10 Noroeste 32 Oeste 0 -- -- 91
2019-11-03 00:00:00 14.8 11 Noroeste 32 Norte 0 -- -- 86
2019-11-02 23:00:00 14.6 13 Noroeste 41 Noroeste 0 -- -- 85
2019-11-02 22:00:00 14.9 15 Noroeste 54 Noroeste 0 -- -- 83
2019-11-02 21:00:00 15.1 16 Noroeste 38 Noroeste 0 -- -- 81
2019-11-02 20:00:00 15.5 17 Noroeste 39 Noroeste 0 -- -- 82
2019-11-02 19:00:00 16 13 Noroeste 41 Norte 0 -- -- 82
2019-11-02 18:00:00 17 12 Noroeste 35 Noroeste 0 -- -- 81
2019-11-02 17:00:00 17.6 11 Oeste 42 Sudoeste 0 -- -- 82
2019-11-02 16:00:00 17.4 15 Sudoeste 33 Sudoeste 0.4 -- -- 87
2019-11-02 15:00:00 17.8 12 Noroeste 28 Sudoeste 1 -- -- 87
2019-11-02 14:00:00 17.1 17 Sudoeste 39 Sudoeste 0.2 -- -- 93
2019-11-02 13:00:00 16.4 15 Sudoeste 32 Sudoeste 1.6 -- -- 95
2019-11-02 12:00:00 16.1 12 Sudoeste 34 Sur 3.4 -- -- 96
2019-11-02 11:00:00 15.9 12 Sudoeste 24 Sudoeste 1 -- -- 95
2019-11-02 10:00:00 16.1 6 Oeste 35 Sudoeste 0.2 -- -- 94
2019-11-02 09:00:00 15.9 10 Sudoeste 35 Sur 1 -- -- 94
2019-11-02 08:00:00 15.9 12 Sudoeste 35 Sudoeste 3 -- -- 95
2019-11-02 07:00:00 15.9 13 Sudoeste 43 Sudoeste 0.6 -- -- 95
2019-11-02 06:00:00 16 14 Sudoeste 40 Sudoeste 0.4 -- -- 94
2019-11-02 05:00:00 15.9 13 Sudoeste 28 Sudoeste 0 -- -- 93
2019-11-02 04:00:00 16.2 2 Sur 17 Oeste 0.6 -- -- 91
2019-11-02 03:00:00 16.5 9 Noroeste 19 Norte 0 -- -- 88
2019-11-02 02:00:00 16.1 5 Norte 17 Noroeste 0 -- -- 90
2019-11-02 01:00:00 16.4 8 Noroeste 20 Sudoeste 0 -- -- 88
2019-11-02 00:00:00 16.4 7 Noroeste 24 Noroeste 0 -- -- 91
2019-11-01 23:00:00 16.5 6 Oeste 20 Norte 0 -- -- 91
2019-11-01 22:00:00 16.7 5 Oeste 24 Oeste 0 -- -- 90
2019-11-01 21:00:00 17 8 Oeste 26 Norte 0 -- -- 90
2019-11-01 20:00:00 17.4 10 Noroeste 26 Noroeste 0 -- -- 87
2019-11-01 19:00:00 18.2 5 Norte 25 Norte 0 -- -- 82
2019-11-01 18:00:00 19.4 8 Oeste 30 Sudoeste 0 -- -- 76
2019-11-01 17:00:00 20.1 12 Oeste 27 Noroeste 0 -- -- 73
2019-11-01 16:00:00 20.9 8 Sudoeste 26 Noroeste 0 -- -- 70
2019-11-01 15:00:00 21.7 10 Oeste 30 Sudoeste 0 -- -- 67
2019-11-01 14:00:00 21.4 11 Noroeste 33 Noroeste 0 -- -- 68
2019-11-01 13:00:00 21 7 Norte 24 Oeste 0 -- -- 71
2019-11-01 12:00:00 21.7 6 Norte 17 Nordeste 0 -- -- 68
2019-11-01 11:00:00 20.8 6 Norte 18 Norte 0 -- -- 71
2019-11-01 10:00:00 18.2 5 Norte 14 Norte 0 -- -- 82
2019-11-01 09:00:00 15.7 4 Norte 13 Nordeste 0 -- -- 91
2019-11-01 08:00:00 15.6 4 Norte 10 Norte 0 -- -- 92
2019-11-01 07:00:00 16.1 5 Norte 14 Nordeste 0 -- -- 91
2019-11-01 06:00:00 16.6 7 Nordeste 18 Norte 0 -- -- 92
2019-11-01 05:00:00 16.8 10 Norte 22 Norte 0 -- -- 92
2019-11-01 04:00:00 16.9 7 Nordeste 22 Norte 0 -- -- 92
2019-11-01 03:00:00 17.5 12 Norte 27 Norte 0 -- -- 90
2019-11-01 02:00:00 17.6 9 Norte 27 Norte 0 -- -- 89
2019-11-01 01:00:00 17.8 12 Norte 32 Norte 0 -- -- 89
2019-11-01 00:00:00 17.8 12 Nordeste 36 Nordeste 0 -- -- 90
2019-10-31 23:00:00 17.9 9 Norte 34 Norte 0 -- -- 89
2019-10-31 22:00:00 18 6 Noroeste 24 Nordeste 0 -- -- 88
2019-10-31 21:00:00 18.2 8 Norte 23 Norte 0 -- -- 86
2019-10-31 20:00:00 18.4 5 Este 28 Nordeste 0 -- -- 84
2019-10-31 19:00:00 18.9 6 Norte 23 Norte 0 -- -- 82
2019-10-31 18:00:00 19.6 11 Norte 27 Norte 0 -- -- 77
2019-10-31 17:00:00 21.2 9 Norte 25 Norte 0 -- -- 69
2019-10-31 16:00:00 21.3 13 Norte 30 Norte 0 -- -- 69
2019-10-31 15:00:00 20.4 11 Norte 31 Norte 0 -- -- 72
2019-10-31 14:00:00 20.4 11 Norte 35 Noroeste 0 -- -- 75
2019-10-31 13:00:00 18.7 13 Norte 30 Norte 0 -- -- 83
2019-10-31 12:00:00 19 9 Noroeste 27 Noroeste 0 -- -- 81
2019-10-31 11:00:00 19.1 7 Norte 22 Norte 0 -- -- 79
2019-10-31 10:00:00 17.9 6 Nordeste 13 Norte 0 -- -- 80
2019-10-31 09:00:00 15.6 6 Nordeste 16 Nordeste 0 -- -- 87
2019-10-31 08:00:00 15.3 6 Nordeste 13 Nordeste 0 -- -- 86
2019-10-31 07:00:00 15.1 6 Nordeste 13 Nordeste 0 -- -- 86
2019-10-31 06:00:00 15.3 5 Nordeste 13 Nordeste 0 -- -- 84
2019-10-31 05:00:00 14.3 6 Nordeste 14 Este 0 -- -- 86
2019-10-31 04:00:00 14.7 6 Nordeste 13 Norte 0 -- -- 83
2019-10-31 03:00:00 14.4 7 Nordeste 17 Norte 0 -- -- 84
2019-10-31 02:00:00 14.7 11 Nordeste 16 Norte 0 -- -- 83
2019-10-31 01:00:00 15.1 9 Norte 16 Nordeste 0 -- -- 82
2019-10-31 00:00:00 16.2 7 Nordeste 25 Norte 0 -- -- 77
2019-10-30 23:00:00 16.6 13 Norte 24 Norte 0 -- -- 76
2019-10-30 22:00:00 17.2 11 Norte 24 Norte 0 -- -- 74
2019-10-30 21:00:00 17.8 12 Norte 28 Norte 0 -- -- 72
2019-10-30 20:00:00 18.4 10 Norte 30 Norte 0 -- -- 68
2019-10-30 19:00:00 19.2 6 Norte 25 Noroeste 0 -- -- 65
2019-10-30 18:00:00 20.2 8 Noroeste 24 Norte 0 -- -- 60
2019-10-30 17:00:00 21.7 10 Noroeste 26 Noroeste 0 -- -- 56
2019-10-30 16:00:00 22.1 7 Noroeste 26 Norte 0 -- -- 52
2019-10-30 15:00:00 22.1 8 Norte 32 Norte 0 -- -- 50
2019-10-30 14:00:00 24.1 7 Norte 19 Oeste 0 -- -- 46
2019-10-30 13:00:00 22.8 8 Norte 17 Noroeste 0 -- -- 49
2019-10-30 12:00:00 22.9 5 Nordeste 14 Norte 0 -- -- 52
2019-10-30 11:00:00 20.6 5 Nordeste 11 Norte 0 -- -- 59
2019-10-30 10:00:00 16.6 7 Nordeste 13 Nordeste 0 -- -- 77
2019-10-30 09:00:00 13.4 10 Norte 16 Norte 0 -- -- 90
2019-10-30 08:00:00 12.4 8 Norte 15 Nordeste 0 -- -- 92
2019-10-30 07:00:00 12.2 11 Norte 18 Norte 0 -- -- 92
2019-10-30 06:00:00 12.7 10 Norte 16 Nordeste 0 -- -- 91
2019-10-30 05:00:00 13.1 10 Norte 18 Norte 0 -- -- 90
2019-10-30 04:00:00 13.2 9 Norte 17 Norte 0 -- -- 90
2019-10-30 03:00:00 13.2 9 Nordeste 18 Noroeste 0 -- -- 89
2019-10-30 02:00:00 13.5 8 Norte 19 Norte 0 -- -- 87
2019-10-30 01:00:00 14 8 Norte 20 Nordeste 0 -- -- 84
2019-10-30 00:00:00 14.4 6 Nordeste 17 Nordeste 0 -- -- 82
2019-10-29 23:00:00 14.6 9 Norte 18 Norte 0 -- -- 80
2019-10-29 22:00:00 15.4 11 Nordeste 27 Norte 0 -- -- 77
2019-10-29 21:00:00 16.5 8 Nordeste 13 Norte 0 -- -- 71
2019-10-29 20:00:00 16.8 9 Nordeste 22 Norte 0 -- -- 68
2019-10-29 19:00:00 18.6 13 Norte 24 Norte 0 -- -- 61
2019-10-29 18:00:00 20 9 Norte 24 Norte 0 -- -- 55
2019-10-29 17:00:00 21.7 10 Noroeste 25 Noroeste 0 -- -- 51
2019-10-29 16:00:00 22.3 10 Noroeste 26 Noroeste 0 -- -- 49
2019-10-29 15:00:00 22.9 8 Noroeste 21 Norte 0 -- -- 48
2019-10-29 14:00:00 22.4 9 Noroeste 28 Noroeste 0 -- -- 46
2019-10-29 13:00:00 22.2 7 Noroeste 22 Norte 0 -- -- 47
2019-10-29 12:00:00 21.4 7 Oeste 17 Norte 0 -- -- 53
2019-10-29 11:00:00 19.5 5 Norte 12 Nordeste 0 -- -- 67
2019-10-29 10:00:00 15.2 6 Nordeste 18 Nordeste 0 -- -- 86
2019-10-29 09:00:00 13.1 11 Nordeste 15 Nordeste 0 -- -- 92
2019-10-29 08:00:00 12.5 9 Nordeste 22 Norte 0 -- -- 92
2019-10-29 07:00:00 12.6 13 Norte 24 Norte 0 -- -- 93
2019-10-29 06:00:00 12.5 9 Nordeste 15 Norte 0 -- -- 92
2019-10-29 05:00:00 12.6 7 Nordeste 16 Norte 0 -- -- 93
2019-10-29 04:00:00 12.5 11 Nordeste 18 Norte 0 -- -- 93
2019-10-29 03:00:00 13.1 15 Norte 23 Norte 0 -- -- 92
2019-10-29 02:00:00 13.3 15 Norte 25 Norte 0 -- -- 90
2019-10-29 01:00:00 14 10 Norte 25 Norte 0 -- -- 88
2019-10-29 00:00:00 13.9 10 Norte 21 Norte 0 -- -- 89
2019-10-28 23:00:00 15.1 10 Norte 18 Norte 0 -- -- 84
2019-10-28 22:00:00 15.3 8 Norte 14 Norte 0 -- -- 83
2019-10-28 21:00:00 15.6 9 Norte 16 Norte 0 -- -- 83
2019-10-28 20:00:00 16.7 8 Norte 18 Noroeste 0 -- -- 78
2019-10-28 19:00:00 17.3 2 Noroeste 9 Oeste 0 -- -- 74
2019-10-28 18:00:00 18.8 6 Sudoeste 15 Oeste 0 -- -- 73
2019-10-28 17:00:00 20.5 9 Sudoeste 21 Sudoeste 0 -- -- 66
2019-10-28 16:00:00 21.1 12 Sudoeste 27 Sudoeste 0 -- -- 61
2019-10-28 15:00:00 21.4 14 Sudoeste 30 Sudoeste 0 -- -- 59
2019-10-28 14:00:00 21.3 12 Sudoeste 24 Sudoeste 0 -- -- 60
2019-10-28 13:00:00 20 5 Sudoeste 19 Sudoeste 0 -- -- 61
2019-10-28 12:00:00 19.1 8 Sudoeste 19 Sudoeste 0 -- -- 61
2019-10-28 11:00:00 17.8 6 Sudoeste 14 Sudoeste 0 -- -- 63
2019-10-28 10:00:00 14.6 6 Nordeste 14 Norte 0 -- -- 77
2019-10-28 09:00:00 12.5 9 Norte 15 Norte 0 -- -- 85
2019-10-28 08:00:00 12.6 6 Nordeste 9 Nordeste 0 -- -- 85
2019-10-28 07:00:00 12 6 Nordeste 12 Norte 0 -- -- 86
2019-10-28 06:00:00 12.8 2 Sudoeste 6 Sur 0 -- -- 77
2019-10-28 05:00:00 12.2 8 Nordeste 11 Nordeste 0 -- -- 81
2019-10-28 04:00:00 12.5 7 Nordeste 12 Norte 0 -- -- 75
2019-10-28 03:00:00 12.9 0 Calma 7 Nordeste 0 -- -- 73
2019-10-28 02:00:00 12.7 4 Nordeste 8 Norte 0 -- -- 74
2019-10-28 01:00:00 13.2 3 Nordeste 5 Nordeste 0 -- -- 71
2019-10-28 00:00:00 13.1 0 Calma 3 Sur 0 -- -- 73
2019-10-27 23:00:00 13.5 0 Calma 9 Nordeste 0 -- -- 70
2019-10-27 22:00:00 13.5 5 Norte 8 Norte 0 -- -- 72
2019-10-27 21:00:00 14 0 Calma 5 Sur 0 -- -- 69
2019-10-27 20:00:00 14.7 0 Calma 14 Norte 0 -- -- 66
2019-10-27 19:00:00 15.5 11 Norte 16 Norte 0 -- -- 63
2019-10-27 18:00:00 19.9 3 Sur 12 Sudoeste 0 -- -- 49
2019-10-27 17:00:00 21 8 Sudoeste 19 Sudoeste 0 -- -- 46
2019-10-27 16:00:00 20.8 12 Sudoeste 20 Sudoeste 0 -- -- 47
2019-10-27 15:00:00 20.8 13 Sudoeste 21 Sudoeste 0 -- -- 48
2019-10-27 14:00:00 20.7 12 Sudoeste 22 Sudoeste 0 -- -- 47
2019-10-27 13:00:00 21.1 8 Sudoeste 19 Sudoeste 0 -- -- 42
2019-10-27 12:00:00 19.3 8 Sudoeste 17 Sudoeste 0 -- -- 47
2019-10-27 11:00:00 18.7 5 Sudoeste 14 Sur 0 -- -- 49
2019-10-27 10:00:00 17.1 3 Sudoeste 7 Sudoeste 0 -- -- 53
2019-10-27 09:00:00 13.7 0 Calma 5 Nordeste 0 -- -- 60
2019-10-27 08:00:00 13 0 Calma 9 Este 0 -- -- 61
2019-10-27 07:00:00 12.6 4 Nordeste 7 Este 0 -- -- 69
2019-10-27 06:00:00 12.5 4 Sudoeste 9 Sudoeste 0 -- -- 72
2019-10-27 05:00:00 12.7 0 Calma 10 Nordeste 0 -- -- 69
2019-10-27 04:00:00 13.6 3 Este 7 Nordeste 0 -- -- 66
2019-10-27 03:00:00 13.4 3 Nordeste 10 Nordeste 0 -- -- 69
2019-10-27 02:00:00 14.2 4 Este 10 Nordeste 0 -- -- 63
2019-10-27 01:00:00 14.6 0 Calma 6 Este 0 -- -- 64
2019-10-27 00:00:00 15.2 0 Calma 8 Nordeste 0 -- -- 60
2019-10-26 23:00:00 15.5 3 Nordeste 7 Nordeste 0 -- -- 63
2019-10-26 22:00:00 15.4 0 Calma 2 Sudoeste 0 -- -- 63
2019-10-26 21:00:00 16 0 Calma 5 Nordeste 0 -- -- 62
2019-10-26 20:00:00 17.3 0 Calma 5 Sur 0 -- -- 57
2019-10-26 19:00:00 20.3 3 Sudoeste 12 Sudoeste 0 -- -- 49
2019-10-26 18:00:00 22.4 6 Sudoeste 15 Sudoeste 0 -- -- 43
2019-10-26 17:00:00 23 9 Sudoeste 19 Sudoeste 0 -- -- 41
2019-10-26 16:00:00 23.1 9 Sudoeste 18 Sudoeste 0 -- -- 40
2019-10-26 15:00:00 22.8 9 Sudoeste 15 Sudoeste 0 -- -- 40
2019-10-26 14:00:00 21.2 10 Sudoeste 18 Sudoeste 0 -- -- 42
2019-10-26 13:00:00 20.5 7 Sudoeste 14 Sudoeste 0 -- -- 43
2019-10-26 12:00:00 19 5 Sudoeste 9 Sudoeste 0 -- -- 45
2019-10-26 11:00:00 17.6 2 Sudoeste 8 Nordeste 0 -- -- 50
2019-10-26 10:00:00 13.8 4 Nordeste 5 Norte 0 -- -- 55
2019-10-26 09:00:00 13.7 0 Calma 11 Nordeste 0 -- -- 52
2019-10-26 08:00:00 13 8 Nordeste 11 Nordeste 0 -- -- 59
2019-10-26 07:00:00 13.6 3 Este 10 Este 0 -- -- 57
2019-10-26 06:00:00 14.1 6 Este 10 Nordeste 0 -- -- 52
2019-10-26 05:00:00 12.4 8 Nordeste 10 Nordeste 0 -- -- 64
2019-10-26 04:00:00 13.1 5 Nordeste 8 Nordeste 0 -- -- 59
2019-10-26 03:00:00 13.5 0 Calma 5 Este 0 -- -- 58
2019-10-26 02:00:00 13.3 0 Calma 5 Sur 0 -- -- 60
2019-10-26 01:00:00 13 0 Calma 5 Sur 0 -- -- 63
2019-10-26 00:00:00 12.9 2 Nordeste 8 Nordeste 0 -- -- 68
2019-10-25 23:00:00 13 5 Nordeste 9 Nordeste 0 -- -- 68
2019-10-25 22:00:00 13.6 2 Sudeste 6 Nordeste 0 -- -- 63
2019-10-25 21:00:00 14.7 3 Este 8 Nordeste 0 -- -- 60
2019-10-25 20:00:00 16 6 Nordeste 9 Nordeste 0 -- -- 56
2019-10-25 19:00:00 19.5 2 Oeste 14 Sudoeste 0 -- -- 46
2019-10-25 18:00:00 21.6 9 Sudoeste 20 Sur 0 -- -- 42
2019-10-25 17:00:00 22.3 13 Sudoeste 20 Sudoeste 0 -- -- 41
2019-10-25 16:00:00 22.1 15 Sudoeste 22 Sudoeste 0 -- -- 42
2019-10-25 15:00:00 22.4 7 Sudoeste 23 Sudoeste 0 -- -- 41
2019-10-25 14:00:00 21.4 12 Sudoeste 24 Sudoeste 0 -- -- 41
2019-10-25 13:00:00 20.3 9 Sudoeste 19 Sudoeste 0 -- -- 44
2019-10-25 12:00:00 18.7 7 Sudoeste 11 Sudoeste 0 -- -- 46
2019-10-25 11:00:00 17.4 3 Sur 7 Sur 0 -- -- 49
2019-10-25 10:00:00 13.2 0 Calma 5 Sur 0 -- -- 59
2019-10-25 09:00:00 12.8 0 Calma 5 Este 0 -- -- 60
2019-10-25 08:00:00 12.6 0 Calma 5 Oeste 0 -- -- 58
2019-10-25 07:00:00 13.1 0 Calma 6 Este 0 -- -- 56
2019-10-25 06:00:00 13.3 0 Calma 10 Nordeste 0 -- -- 54
2019-10-25 05:00:00 13.7 2 Nordeste 9 Este 0 -- -- 54
2019-10-25 04:00:00 11.9 3 Nordeste 14 Nordeste 0 -- -- 63
2019-10-25 03:00:00 11.3 11 Nordeste 15 Nordeste 0 -- -- 66
2019-10-25 02:00:00 13.2 3 Nordeste 8 Oeste 0 -- -- 58
2019-10-25 01:00:00 13.5 3 Sudoeste 13 Nordeste 0 -- -- 57
2019-10-25 00:00:00 12.9 10 Nordeste 17 Nordeste 0 -- -- 61
2019-10-24 23:00:00 12.8 10 Norte 15 Norte 0 -- -- 63
2019-10-24 22:00:00 13.1 8 Nordeste 15 Norte 0 -- -- 62
2019-10-24 21:00:00 13.3 9 Nordeste 20 Norte 0 -- -- 62
2019-10-24 20:00:00 14.4 10 Nordeste 22 Norte 0 -- -- 58
2019-10-24 19:00:00 17.3 7 Norte 26 Norte 0 -- -- 46
2019-10-24 18:00:00 18.4 11 Norte 25 Norte 0 -- -- 41
2019-10-24 17:00:00 19.4 8 Norte 23 Noroeste 0 -- -- 42
2019-10-24 16:00:00 18.5 10 Norte 26 Norte 0 -- -- 48
2019-10-24 15:00:00 18 7 Noroeste 18 Nordeste 0 -- -- 52
2019-10-24 14:00:00 16.6 8 Norte 22 Norte 0 -- -- 57
2019-10-24 13:00:00 16.1 6 Norte 17 Norte 0 -- -- 58
2019-10-24 12:00:00 14.4 8 Nordeste 20 Norte 0 -- -- 63
2019-10-24 11:00:00 13.1 4 Nordeste 15 Nordeste 0 -- -- 64
2019-10-24 10:00:00 10.6 3 Noroeste 20 Este 0 -- -- 69
2019-10-24 09:00:00 9.5 4 Noroeste 24 Norte 0 -- -- 77
2019-10-24 08:00:00 9.3 9 Nordeste 32 Norte 0 -- -- 83
2019-10-24 07:00:00 9.1 8 Norte 28 Noroeste 0 -- -- 87
2019-10-24 06:00:00 9.1 5 Este 25 Norte 0 -- -- 88
2019-10-24 05:00:00 9.7 9 Noroeste 27 Norte 0 -- -- 88
2019-10-24 04:00:00 10.2 9 Norte 28 Oeste 0 -- -- 87
2019-10-24 03:00:00 10.6 9 Norte 32 Oeste 0 -- -- 85
2019-10-24 02:00:00 10.9 8 Noroeste 28 Noroeste 0 -- -- 83
2019-10-24 01:00:00 11.4 12 Noroeste 35 Norte 0 -- -- 81
2019-10-24 00:00:00 11.6 8 Norte 30 Oeste 0 -- -- 82
2019-10-23 23:00:00 11.3 4 Oeste 18 Oeste 0 -- -- 86
2019-10-23 22:00:00 10.2 5 Oeste 17 Oeste 0.2 -- -- 89
2019-10-23 21:00:00 10 5 Oeste 37 Noroeste 0.2 -- -- 89
2019-10-23 20:00:00 10.7 10 Noroeste 31 Noroeste 0.6 -- -- 82
2019-10-23 19:00:00 12.7 9 Noroeste 30 Oeste 0.2 -- -- 73
2019-10-23 18:00:00 13.7 9 Oeste 39 Sudoeste 0 -- -- 64
2019-10-23 17:00:00 14.7 13 Oeste 41 Sur 0 -- -- 60
2019-10-23 16:00:00 14.9 12 Oeste 48 Sudoeste 0 -- -- 54
2019-10-23 15:00:00 14.9 11 Noroeste 32 Sudoeste 0 -- -- 58
2019-10-23 14:00:00 13.2 10 Oeste 26 Norte 0 -- -- 72
2019-10-23 13:00:00 13.5 7 Oeste 30 Norte 0 -- -- 70
2019-10-23 12:00:00 11.9 5 Sudoeste 13 Oeste 0 -- -- 81
2019-10-23 11:00:00 11 6 Oeste 15 Noroeste 0 -- -- 89
2019-10-23 10:00:00 9.7 5 Nordeste 23 Sudoeste 0 -- -- 91
2019-10-23 09:00:00 9.8 7 Sudoeste 25 Oeste 0 -- -- 92
2019-10-23 08:00:00 9.7 10 Sudoeste 33 Sudoeste 0 -- -- 91
2019-10-23 07:00:00 9.8 5 Noroeste 22 Sudoeste 0 -- -- 89
2019-10-23 06:00:00 9.7 2 Oeste 21 Sudoeste 0.2 -- -- 91
2019-10-23 05:00:00 9.7 12 Oeste 27 Sudoeste 3 -- -- 87
2019-10-23 04:00:00 9.9 14 Oeste 33 Sudoeste 0 -- -- 85
2019-10-23 03:00:00 9.8 2 Nordeste 12 Noroeste 0 -- -- 81
2019-10-23 02:00:00 9.7 4 Oeste 10 Oeste 0 -- -- 82
2019-10-23 01:00:00 9.6 3 Oeste 15 Noroeste 0 -- -- 80
2019-10-23 00:00:00 10 5 Norte 25 Norte 0 -- -- 77
2019-10-22 23:00:00 10.2 11 Norte 27 Norte 0 -- -- 74
2019-10-22 22:00:00 10.4 8 Norte 24 Norte 0 -- -- 74
2019-10-22 21:00:00 10.4 12 Norte 23 Norte 0 -- -- 70
2019-10-22 20:00:00 9.7 8 Nordeste 16 Nordeste 0 -- -- 77
2019-10-22 19:00:00 10.3 12 Norte 29 Nordeste 0 -- -- 73
2019-10-22 18:00:00 10.1 17 Norte 31 Norte 0 -- -- 78
2019-10-22 17:00:00 11.3 15 Norte 32 Norte 0 -- -- 77
2019-10-22 16:00:00 10.8 12 Norte 27 Norte 0 -- -- 86
2019-10-22 15:00:00 9.7 14 Norte 27 Norte 2.2 -- -- 86
2019-10-22 14:00:00 12.1 13 Noroeste 32 Norte 1.8 -- -- 70
2019-10-22 13:00:00 16.5 6 Sudoeste 14 Sudoeste 0 -- -- 54
2019-10-22 12:00:00 15.2 5 Sudoeste 10 Oeste 0 -- -- 59
2019-10-22 11:00:00 13 6 Norte 9 Norte 0 -- -- 67
2019-10-22 10:00:00 9.5 6 Norte 13 Norte 0 -- -- 80
2019-10-22 09:00:00 7.9 10 Norte 14 Nordeste 0 -- -- 86
2019-10-22 08:00:00 8.1 11 Nordeste 13 Nordeste 0 -- -- 85
2019-10-22 07:00:00 8.2 12 Nordeste 14 Nordeste 0 -- -- 84
2019-10-22 06:00:00 8.8 9 Nordeste 13 Nordeste 0 -- -- 82
2019-10-22 05:00:00 9.6 9 Nordeste 12 Nordeste 0 -- -- 78
2019-10-22 04:00:00 9.4 7 Norte 13 Norte 0 -- -- 80
2019-10-22 03:00:00 10.3 3 Nordeste 10 Norte 0 -- -- 76
2019-10-22 02:00:00 9.4 9 Norte 15 Norte 0 -- -- 81
2019-10-22 01:00:00 9.8 8 Norte 15 Norte 0 -- -- 76
2019-10-22 00:00:00 11 6 Norte 10 Norte 0 -- -- 72
2019-10-21 23:00:00 11.8 5 Nordeste 6 Nordeste 0 -- -- 67
2019-10-21 22:00:00 12 5 Nordeste 8 Norte 0 -- -- 66
2019-10-21 21:00:00 12.6 2 Oeste 10 Norte 0 -- -- 64
2019-10-21 20:00:00 13.5 4 Sudoeste 9 Sudoeste 0 -- -- 57
2019-10-21 19:00:00 14.5 6 Sudoeste 20 Sudoeste 0 -- -- 57
2019-10-21 18:00:00 17.1 14 Sudoeste 24 Sudoeste 0 -- -- 53
2019-10-21 17:00:00 17.3 9 Sudoeste 26 Sudoeste 0 -- -- 53
2019-10-21 16:00:00 16.7 11 Sudoeste 22 Sudoeste 0 -- -- 53
2019-10-21 15:00:00 16.3 7 Sur 23 Sudoeste 0 -- -- 47
2019-10-21 14:00:00 16.1 4 Sudoeste 26 Sur 0 -- -- 48
2019-10-21 13:00:00 17.4 5 Nordeste 12 Sudoeste 0 -- -- 46
2019-10-21 12:00:00 15.5 4 Nordeste 10 Nordeste 0 -- -- 53
2019-10-21 11:00:00 12.2 8 Nordeste 12 Nordeste 0 -- -- 69
2019-10-21 10:00:00 8.1 9 Nordeste 14 Norte 0 -- -- 86
2019-10-21 09:00:00 6.9 11 Nordeste 15 Norte 0 -- -- 89
2019-10-21 08:00:00 7.5 11 Nordeste 14 Norte 0 -- -- 85
2019-10-21 07:00:00 7.4 10 Nordeste 14 Nordeste 0 -- -- 86
2019-10-21 06:00:00 8.2 9 Norte 14 Norte 0 -- -- 83
2019-10-21 05:00:00 7.8 10 Norte 14 Norte 0 -- -- 85
2019-10-21 04:00:00 8.2 10 Nordeste 13 Norte 0 -- -- 84
2019-10-21 03:00:00 8.1 11 Norte 15 Norte 0 -- -- 85
2019-10-21 02:00:00 8.8 6 Nordeste 17 Nordeste 0 -- -- 85
2019-10-21 01:00:00 10.3 10 Norte 21 Norte 0 -- -- 81
2019-10-21 00:00:00 10.5 11 Norte 17 Noroeste 0 -- -- 81
2019-10-20 23:00:00 11.2 9 Norte 18 Norte 0 -- -- 79
2019-10-20 22:00:00 11.1 2 Norte 14 Noroeste 0 -- -- 74
2019-10-20 21:00:00 11.9 4 Nordeste 14 Oeste 0 -- -- 70
2019-10-20 20:00:00 12.9 5 Noroeste 17 Noroeste 0 -- -- 63
2019-10-20 19:00:00 14.9 7 Noroeste 19 Este 0 -- -- 53
2019-10-20 18:00:00 16.3 7 Oeste 24 Norte 0 -- -- 48
2019-10-20 17:00:00 16.4 10 Norte 28 Norte 0 -- -- 48
2019-10-20 16:00:00 17 8 Oeste 23 Noroeste 0 -- -- 51
2019-10-20 15:00:00 15.9 10 Noroeste 26 Oeste 0 -- -- 53
2019-10-20 14:00:00 15.1 9 Noroeste 24 Nordeste 0 -- -- 57
2019-10-20 13:00:00 14.9 6 Norte 26 Norte 0 -- -- 63
2019-10-20 12:00:00 13.6 5 Norte 27 Norte 0 -- -- 70
2019-10-20 11:00:00 12.2 11 Norte 26 Noroeste 0 -- -- 77
2019-10-20 10:00:00 10.4 6 Norte 21 Norte 0 -- -- 86
2019-10-20 09:00:00 10.2 8 Norte 29 Norte 0 -- -- 85
2019-10-20 08:00:00 10.4 12 Norte 29 Norte 0 -- -- 87
2019-10-20 07:00:00 10.9 7 Norte 32 Noroeste 0.2 -- -- 83
2019-10-20 06:00:00 10.6 13 Norte 37 Norte 0.2 -- -- 80
2019-10-20 05:00:00 11.6 13 Norte 45 Norte 0 -- -- 71
2019-10-20 04:00:00 12 16 Norte 49 Noroeste 0 -- -- 79
2019-10-20 03:00:00 12.5 10 Nordeste 45 Norte 0 -- -- 82
2019-10-20 02:00:00 12.8 16 Norte 43 Norte 0.4 -- -- 86
2019-10-20 01:00:00 14.6 13 Noroeste 40 Norte 0 -- -- 91
2019-10-20 00:00:00 15.4 21 Sudoeste 40 Sudoeste 2.8 -- -- 94
2019-10-19 23:00:00 16.3 17 Sudoeste 33 Sudoeste 0.2 -- -- 93
2019-10-19 22:00:00 16.2 15 Sudoeste 38 Sur 0 -- -- 94
2019-10-19 21:00:00 16.1 10 Sudoeste 35 Sudoeste 0 -- -- 94
2019-10-19 20:00:00 16.1 15 Sudoeste 32 Sur 0 -- -- 94
2019-10-19 19:00:00 16.3 10 Sudoeste 37 Sur 0.4 -- -- 93
2019-10-19 18:00:00 17.1 13 Sudoeste 27 Sudoeste 0 -- -- 88
2019-10-19 17:00:00 16.7 7 Sudoeste 18 Sudoeste 0 -- -- 89
2019-10-19 16:00:00 15.9 10 Sudoeste 25 Sudoeste 0.6 -- -- 90
2019-10-19 15:00:00 17.3 11 Sudoeste 36 Sur 0 -- -- 80
2019-10-19 14:00:00 19.8 13 Sudoeste 37 Sudoeste 0 -- -- 62
2019-10-19 13:00:00 20.5 15 Sudoeste 43 Sur 0 -- -- 63
2019-10-19 12:00:00 20.1 9 Oeste 21 Sudoeste 0 -- -- 61
2019-10-19 11:00:00 18.1 4 Nordeste 12 Norte 0 -- -- 74
2019-10-19 10:00:00 15.3 9 Norte 15 Norte 0 -- -- 81
2019-10-19 09:00:00 14.1 7 Norte 18 Norte 0 -- -- 87
2019-10-19 08:00:00 14.1 12 Norte 23 Norte 0 -- -- 91
2019-10-19 07:00:00 13.8 14 Norte 28 Noroeste 0 -- -- 94
2019-10-19 06:00:00 13.6 10 Norte 23 Norte 0 -- -- 91
2019-10-19 05:00:00 14.2 13 Norte 22 Norte 0 -- -- 92
2019-10-19 04:00:00 14.8 8 Norte 24 Norte 0 -- -- 89
2019-10-19 03:00:00 15.2 11 Norte 22 Norte 0 -- -- 90
2019-10-19 02:00:00 15.2 9 Nordeste 23 Norte 0 -- -- 90
2019-10-19 01:00:00 16.3 15 Norte 31 Norte 0 -- -- 85
2019-10-19 00:00:00 16.1 12 Norte 23 Norte 0 -- -- 86
2019-10-18 23:00:00 16.4 12 Norte 22 Norte 0 -- -- 85
2019-10-18 22:00:00 17.2 9 Norte 24 Norte 0 -- -- 81
2019-10-18 21:00:00 18.1 14 Norte 25 Norte 0 -- -- 78
2019-10-18 20:00:00 19.5 12 Norte 26 Norte 0 -- -- 70
2019-10-18 19:00:00 21.1 13 Norte 28 Noroeste 0 -- -- 62
2019-10-18 18:00:00 23.3 7 Norte 28 Noroeste 0 -- -- 55
2019-10-18 17:00:00 23.9 10 Norte 24 Noroeste 0 -- -- 53
2019-10-18 16:00:00 24.2 11 Noroeste 25 Noroeste 0 -- -- 52
2019-10-18 15:00:00 24.3 10 Norte 26 Norte 0 -- -- 52
2019-10-18 14:00:00 23.8 8 Noroeste 24 Norte 0 -- -- 54
2019-10-18 13:00:00 22.7 7 Noroeste 19 Norte 0 -- -- 57
2019-10-18 12:00:00 20.5 6 Norte 20 Norte 0 -- -- 59
2019-10-18 11:00:00 17 11 Nordeste 21 Nordeste 0 -- -- 64
2019-10-18 10:00:00 13.6 11 Norte 22 Norte 0 -- -- 70
2019-10-18 09:00:00 12.4 12 Norte 20 Norte 0 -- -- 70
2019-10-18 08:00:00 12.4 13 Norte 20 Norte 0 -- -- 70
2019-10-18 07:00:00 12.9 12 Norte 19 Norte 0 -- -- 67
2019-10-18 06:00:00 12.9 11 Norte 19 Norte 0 -- -- 66
2019-10-18 05:00:00 13.3 11 Norte 19 Norte 0 -- -- 64
2019-10-18 04:00:00 13.4 12 Norte 19 Norte 0 -- -- 66
2019-10-18 03:00:00 14.2 9 Norte 18 Norte 0 -- -- 63
2019-10-18 02:00:00 14.3 12 Norte 20 Norte 0 -- -- 65
2019-10-18 01:00:00 14.6 8 Norte 22 Norte 0 -- -- 65
2019-10-18 00:00:00 14.4 13 Norte 22 Norte 0 -- -- 66